RPLB

Subic Bay International Airport

Olongapo City, Philippines
TAF RPLB 191700Z 1918/2018 05004KT 9999 FEW020 BKN080 TX33/2006Z TN24/1922Z TEMPO 1918/1924 07008KT 7000 -SHRA FEW018CB SCT020 OVC080
Issued Valid From Valid To
Sep-19 @ 17:00 UTC
(6 hours ago)
Sep-19 @ 18:00 UTC
(5 hours ago)
Sep-20 @ 18:00 UTC
(in 19 hours)
Sep-19 @ 18:00 to Sep-20 @ 18:00
TAF RPLB 191700Z 1918/2018 05004KT 9999 FEW020 BKN080 TX33/2006Z TN24/1922Z
Wind Visibility Clouds
50° at 4 knots 10,000+ meters
  • Few at 2,000' AGL
  • Broken at 8,000' AGL
Temporary Sep-19 @ 18:00 to Sep-20 @ 00:00
TEMPO 1918/1924 07008KT 7000 -SHRA FEW018CB SCT020 OVC080
Wind Visibility Clouds Conditions
70° at 8 knots 7,001 meters
  • Few at 1,800' AGL
  • Scattered at 2,000' AGL
  • Overcast at 8,000' AGL
  • Light Rain
TAF RPLB 191700Z 1918/2018 05004KT 9999 FEW020 BKN080 TX33/2006Z TN24/1922Z TEMPO 1918/1924 07008KT 7000 -SHRA FEW018CB SCT020 OVC080
Issued Sep-19 @ 17:00 UTC
(6 hours ago)
Valid From Sep-19 @ 18:00 UTC
(5 hours ago)
Valid To Sep-20 @ 18:00 UTC
(in 19 hours)
Sep-19 @ 18:00 - Sep-20 @ 18:00
Wind Visibility
50° at 4 knots 10,000+ meters
Clouds
  • Few at 2,000' AGL
  • Broken at 8,000' AGL
Temporary Sep-19 @ 18:00 - Sep-20 @ 00:00
Wind Visibility
70° at 8 knots 7,001 meters
Clouds
  • Few at 1,800' AGL
  • Scattered at 2,000' AGL
  • Overcast at 8,000' AGL
Conditions
  • Light Rain